sensor_id;sensor_type;location;lat;lon;timestamp;pressure;altitude;pressure_sealevel;temperature;humidity
12536;BME280;6334;48.696;2.114;2022-11-24T00:00:26;98952.33;;;9.03;100.00
12536;BME280;6334;48.696;2.114;2022-11-24T00:02:57;98956.39;;;9.04;100.00
12536;BME280;6334;48.696;2.114;2022-11-24T00:05:27;98959.33;;;9.12;100.00
12536;BME280;6334;48.696;2.114;2022-11-24T00:07:58;98951.27;;;9.03;100.00
12536;BME280;6334;48.696;2.114;2022-11-24T00:10:28;98954.59;;;9.12;100.00
12536;BME280;6334;48.696;2.114;2022-11-24T00:12:59;98964.98;;;9.07;100.00
12536;BME280;6334;48.696;2.114;2022-11-24T00:15:29;98962.67;;;9.19;100.00
12536;BME280;6334;48.696;2.114;2022-11-24T00:18:00;98971.30;;;9.16;100.00
12536;BME280;6334;48.696;2.114;2022-11-24T00:20:30;98980.89;;;9.27;100.00
12536;BME280;6334;48.696;2.114;2022-11-24T00:23:00;98979.12;;;9.20;100.00
12536;BME280;6334;48.696;2.114;2022-11-24T00:25:31;98991.11;;;9.28;100.00
12536;BME280;6334;48.696;2.114;2022-11-24T00:28:01;98977.42;;;9.29;100.00
12536;BME280;6334;48.696;2.114;2022-11-24T00:30:32;98947.45;;;9.21;100.00
12536;BME280;6334;48.696;2.114;2022-11-24T00:33:02;98947.86;;;9.36;100.00
12536;BME280;6334;48.696;2.114;2022-11-24T00:35:33;98963.98;;;9.33;100.00
12536;BME280;6334;48.696;2.114;2022-11-24T00:38:03;98963.73;;;9.34;100.00
12536;BME280;6334;48.696;2.114;2022-11-24T00:40:34;98957.56;;;9.34;100.00
12536;BME280;6334;48.696;2.114;2022-11-24T00:43:04;98972.76;;;9.35;100.00
12536;BME280;6334;48.696;2.114;2022-11-24T00:45:35;98984.95;;;9.28;100.00
12536;BME280;6334;48.696;2.114;2022-11-24T00:48:05;98978.36;;;9.30;100.00
12536;BME280;6334;48.696;2.114;2022-11-24T00:50:36;98966.30;;;9.28;100.00
12536;BME280;6334;48.696;2.114;2022-11-24T00:53:06;98958.45;;;9.34;100.00
12536;BME280;6334;48.696;2.114;2022-11-24T00:55:36;98976.48;;;9.41;100.00
12536;BME280;6334;48.696;2.114;2022-11-24T00:58:07;98968.39;;;9.22;100.00
12536;BME280;6334;48.696;2.114;2022-11-24T01:00:37;98972.09;;;9.19;100.00
12536;BME280;6334;48.696;2.114;2022-11-24T01:03:08;98982.89;;;9.24;100.00
12536;BME280;6334;48.696;2.114;2022-11-24T01:05:38;98978.51;;;9.21;100.00
12536;BME280;6334;48.696;2.114;2022-11-24T01:08:09;98969.99;;;9.23;100.00
12536;BME280;6334;48.696;2.114;2022-11-24T01:10:39;98978.58;;;9.21;100.00
12536;BME280;6334;48.696;2.114;2022-11-24T01:13:10;98973.83;;;9.05;100.00
12536;BME280;6334;48.696;2.114;2022-11-24T01:15:40;98976.78;;;8.99;100.00
12536;BME280;6334;48.696;2.114;2022-11-24T01:18:11;98984.19;;;9.03;100.00
12536;BME280;6334;48.696;2.114;2022-11-24T01:20:41;98986.25;;;8.96;100.00
12536;BME280;6334;48.696;2.114;2022-11-24T01:23:12;98985.31;;;8.99;100.00
12536;BME280;6334;48.696;2.114;2022-11-24T01:25:42;99001.00;;;8.98;100.00
12536;BME280;6334;48.696;2.114;2022-11-24T01:28:13;98998.61;;;8.90;100.00
12536;BME280;6334;48.696;2.114;2022-11-24T01:30:43;99002.27;;;8.92;100.00
12536;BME280;6334;48.696;2.114;2022-11-24T01:33:14;99008.30;;;8.94;100.00
12536;BME280;6334;48.696;2.114;2022-11-24T01:35:44;99012.50;;;8.89;100.00
12536;BME280;6334;48.696;2.114;2022-11-24T01:38:14;99019.38;;;8.74;100.00
12536;BME280;6334;48.696;2.114;2022-11-24T01:40:46;99026.54;;;8.85;100.00
12536;BME280;6334;48.696;2.114;2022-11-24T01:43:17;99026.11;;;8.71;100.00
12536;BME280;6334;48.696;2.114;2022-11-24T01:45:47;99027.89;;;8.70;100.00
12536;BME280;6334;48.696;2.114;2022-11-24T01:48:19;99032.52;;;8.70;100.00
12536;BME280;6334;48.696;2.114;2022-11-24T01:50:51;99029.95;;;8.77;100.00
12536;BME280;6334;48.696;2.114;2022-11-24T01:53:19;99032.98;;;8.74;100.00
12536;BME280;6334;48.696;2.114;2022-11-24T01:55:49;99041.23;;;8.71;100.00
12536;BME280;6334;48.696;2.114;2022-11-24T01:58:23;99044.48;;;8.62;100.00
12536;BME280;6334;48.696;2.114;2022-11-24T02:00:52;99044.58;;;8.57;100.00
12536;BME280;6334;48.696;2.114;2022-11-24T02:03:24;99050.13;;;8.66;100.00
12536;BME280;6334;48.696;2.114;2022-11-24T02:06:05;99061.72;;;8.70;100.00
12536;BME280;6334;48.696;2.114;2022-11-24T02:08:42;99062.70;;;8.68;100.00
12536;BME280;6334;48.696;2.114;2022-11-24T02:11:12;99065.09;;;8.60;100.00
12536;BME280;6334;48.696;2.114;2022-11-24T02:13:42;99080.42;;;8.63;100.00
12536;BME280;6334;48.696;2.114;2022-11-24T02:16:12;99087.33;;;8.58;100.00
12536;BME280;6334;48.696;2.114;2022-11-24T02:18:43;99091.83;;;8.64;100.00
12536;BME280;6334;48.696;2.114;2022-11-24T02:21:14;99087.53;;;8.59;100.00
12536;BME280;6334;48.696;2.114;2022-11-24T02:23:53;99102.50;;;8.68;100.00
12536;BME280;6334;48.696;2.114;2022-11-24T02:29:04;99106.86;;;8.69;100.00
12536;BME280;6334;48.696;2.114;2022-11-24T02:31:35;99106.64;;;8.62;100.00
12536;BME280;6334;48.696;2.114;2022-11-24T02:34:05;99108.55;;;8.52;100.00
12536;BME280;6334;48.696;2.114;2022-11-24T02:36:35;99111.64;;;8.51;100.00
12536;BME280;6334;48.696;2.114;2022-11-24T02:39:10;99109.13;;;8.61;100.00
12536;BME280;6334;48.696;2.114;2022-11-24T02:41:41;99124.22;;;8.60;100.00
12536;BME280;6334;48.696;2.114;2022-11-24T02:44:09;99126.60;;;8.64;100.00
12536;BME280;6334;48.696;2.114;2022-11-24T02:46:40;99131.31;;;8.53;100.00
12536;BME280;6334;48.696;2.114;2022-11-24T02:49:11;99133.80;;;8.60;100.00
12536;BME280;6334;48.696;2.114;2022-11-24T02:51:41;99151.88;;;8.59;100.00
12536;BME280;6334;48.696;2.114;2022-11-24T02:54:12;99153.25;;;8.52;100.00
12536;BME280;6334;48.696;2.114;2022-11-24T02:56:42;99154.19;;;8.65;100.00
12536;BME280;6334;48.696;2.114;2022-11-24T02:59:12;99153.36;;;8.50;100.00
12536;BME280;6334;48.696;2.114;2022-11-24T03:01:44;99161.72;;;8.44;100.00
12536;BME280;6334;48.696;2.114;2022-11-24T03:04:14;99167.30;;;8.50;100.00
12536;BME280;6334;48.696;2.114;2022-11-24T03:06:45;99171.47;;;8.38;100.00
12536;BME280;6334;48.696;2.114;2022-11-24T03:09:15;99173.81;;;8.43;100.00
12536;BME280;6334;48.696;2.114;2022-11-24T03:11:46;99175.12;;;8.44;100.00
12536;BME280;6334;48.696;2.114;2022-11-24T03:14:16;99185.91;;;8.46;100.00
12536;BME280;6334;48.696;2.114;2022-11-24T03:16:47;99190.54;;;8.43;100.00
12536;BME280;6334;48.696;2.114;2022-11-24T03:19:17;99203.66;;;8.44;100.00
12536;BME280;6334;48.696;2.114;2022-11-24T03:21:48;99200.40;;;8.35;100.00
12536;BME280;6334;48.696;2.114;2022-11-24T03:24:18;99207.17;;;8.42;100.00
12536;BME280;6334;48.696;2.114;2022-11-24T03:26:48;99215.74;;;8.35;100.00
12536;BME280;6334;48.696;2.114;2022-11-24T03:29:20;99217.00;;;8.42;100.00
12536;BME280;6334;48.696;2.114;2022-11-24T03:31:50;99226.50;;;8.36;100.00
12536;BME280;6334;48.696;2.114;2022-11-24T03:34:21;99223.23;;;8.65;100.00
12536;BME280;6334;48.696;2.114;2022-11-24T03:36:51;99227.17;;;8.42;100.00
12536;BME280;6334;48.696;2.114;2022-11-24T03:39:22;99223.50;;;8.29;100.00
12536;BME280;6334;48.696;2.114;2022-11-24T03:41:52;99225.28;;;8.18;100.00
12536;BME280;6334;48.696;2.114;2022-11-24T03:44:23;99229.81;;;8.34;100.00
12536;BME280;6334;48.696;2.114;2022-11-24T03:46:53;99230.14;;;8.34;100.00
12536;BME280;6334;48.696;2.114;2022-11-24T03:49:24;99234.64;;;8.33;100.00
12536;BME280;6334;48.696;2.114;2022-11-24T03:51:54;99239.95;;;8.31;100.00
12536;BME280;6334;48.696;2.114;2022-11-24T03:54:25;99237.30;;;8.27;100.00
12536;BME280;6334;48.696;2.114;2022-11-24T03:56:55;99236.41;;;8.35;100.00
12536;BME280;6334;48.696;2.114;2022-11-24T03:59:25;99238.25;;;8.29;100.00
12536;BME280;6334;48.696;2.114;2022-11-24T04:01:56;99242.55;;;8.26;100.00
12536;BME280;6334;48.696;2.114;2022-11-24T04:04:26;99247.94;;;8.17;100.00
12536;BME280;6334;48.696;2.114;2022-11-24T04:06:57;99251.28;;;8.16;100.00
12536;BME280;6334;48.696;2.114;2022-11-24T04:09:27;99261.16;;;8.12;100.00
12536;BME280;6334;48.696;2.114;2022-11-24T04:11:58;99260.48;;;8.20;100.00
12536;BME280;6334;48.696;2.114;2022-11-24T04:14:47;99255.45;;;8.03;100.00
12536;BME280;6334;48.696;2.114;2022-11-24T04:17:17;99256.44;;;8.00;100.00
12536;BME280;6334;48.696;2.114;2022-11-24T04:19:47;99259.67;;;8.10;100.00
12536;BME280;6334;48.696;2.114;2022-11-24T04:22:18;99262.76;;;8.08;100.00
12536;BME280;6334;48.696;2.114;2022-11-24T04:24:48;99265.05;;;7.92;100.00
12536;BME280;6334;48.696;2.114;2022-11-24T04:27:19;99266.59;;;8.13;100.00
12536;BME280;6334;48.696;2.114;2022-11-24T04:29:49;99277.11;;;8.00;100.00
12536;BME280;6334;48.696;2.114;2022-11-24T04:32:20;99279.97;;;8.00;100.00
12536;BME280;6334;48.696;2.114;2022-11-24T04:34:50;99283.93;;;8.12;100.00
12536;BME280;6334;48.696;2.114;2022-11-24T04:37:21;99288.09;;;8.17;100.00
12536;BME280;6334;48.696;2.114;2022-11-24T04:39:51;99291.53;;;8.06;100.00
12536;BME280;6334;48.696;2.114;2022-11-24T04:42:22;99293.30;;;8.08;100.00
12536;BME280;6334;48.696;2.114;2022-11-24T04:44:52;99290.42;;;7.99;100.00
12536;BME280;6334;48.696;2.114;2022-11-24T04:47:23;99289.47;;;8.00;100.00
12536;BME280;6334;48.696;2.114;2022-11-24T04:49:53;99289.80;;;8.02;100.00
12536;BME280;6334;48.696;2.114;2022-11-24T04:52:24;99293.50;;;7.95;100.00
12536;BME280;6334;48.696;2.114;2022-11-24T04:54:54;99292.58;;;8.00;100.00
12536;BME280;6334;48.696;2.114;2022-11-24T04:57:24;99291.92;;;7.95;100.00
12536;BME280;6334;48.696;2.114;2022-11-24T04:59:55;99290.88;;;8.03;100.00
12536;BME280;6334;48.696;2.114;2022-11-24T05:02:25;99288.09;;;7.88;100.00
12536;BME280;6334;48.696;2.114;2022-11-24T05:04:56;99291.47;;;8.03;100.00
12536;BME280;6334;48.696;2.114;2022-11-24T05:07:26;99287.73;;;7.99;100.00
12536;BME280;6334;48.696;2.114;2022-11-24T05:09:57;99288.22;;;7.94;100.00
12536;BME280;6334;48.696;2.114;2022-11-24T05:12:52;99291.47;;;7.88;100.00
12536;BME280;6334;48.696;2.114;2022-11-24T05:15:16;99293.13;;;7.89;100.00
12536;BME280;6334;48.696;2.114;2022-11-24T05:17:46;99296.52;;;7.98;100.00
12536;BME280;6334;48.696;2.114;2022-11-24T05:20:17;99294.06;;;8.04;100.00
12536;BME280;6334;48.696;2.114;2022-11-24T05:22:47;99291.82;;;7.86;100.00
12536;BME280;6334;48.696;2.114;2022-11-24T05:25:17;99292.28;;;7.88;100.00
12536;BME280;6334;48.696;2.114;2022-11-24T05:27:48;99298.05;;;7.89;100.00
12536;BME280;6334;48.696;2.114;2022-11-24T05:30:18;99289.34;;;8.01;100.00
12536;BME280;6334;48.696;2.114;2022-11-24T05:32:49;99290.64;;;7.91;100.00
12536;BME280;6334;48.696;2.114;2022-11-24T05:35:19;99290.55;;;7.98;100.00
12536;BME280;6334;48.696;2.114;2022-11-24T05:37:50;99299.45;;;7.83;100.00
12536;BME280;6334;48.696;2.114;2022-11-24T05:40:21;99297.49;;;7.87;100.00
12536;BME280;6334;48.696;2.114;2022-11-24T05:42:52;99303.51;;;7.80;100.00
12536;BME280;6334;48.696;2.114;2022-11-24T05:45:22;99311.68;;;7.90;100.00
12536;BME280;6334;48.696;2.114;2022-11-24T05:47:53;99312.25;;;7.79;100.00
12536;BME280;6334;48.696;2.114;2022-11-24T05:50:23;99308.80;;;8.01;100.00
12536;BME280;6334;48.696;2.114;2022-11-24T05:52:55;99313.59;;;7.96;100.00
12536;BME280;6334;48.696;2.114;2022-11-24T05:55:25;99323.35;;;7.96;100.00
12536;BME280;6334;48.696;2.114;2022-11-24T05:58:02;99327.17;;;7.84;100.00
12536;BME280;6334;48.696;2.114;2022-11-24T06:00:32;99330.86;;;7.77;100.00
12536;BME280;6334;48.696;2.114;2022-11-24T06:03:02;99329.41;;;7.99;100.00
12536;BME280;6334;48.696;2.114;2022-11-24T06:05:33;99324.45;;;7.81;100.00
12536;BME280;6334;48.696;2.114;2022-11-24T06:08:03;99331.30;;;7.83;100.00
12536;BME280;6334;48.696;2.114;2022-11-24T06:10:34;99334.14;;;7.80;100.00
12536;BME280;6334;48.696;2.114;2022-11-24T06:13:05;99341.52;;;7.81;100.00
12536;BME280;6334;48.696;2.114;2022-11-24T06:15:37;99340.83;;;7.68;100.00
12536;BME280;6334;48.696;2.114;2022-11-24T06:18:07;99342.88;;;7.74;100.00
12536;BME280;6334;48.696;2.114;2022-11-24T06:20:40;99350.93;;;7.72;100.00
12536;BME280;6334;48.696;2.114;2022-11-24T06:23:10;99349.10;;;7.74;100.00
12536;BME280;6334;48.696;2.114;2022-11-24T06:25:41;99346.44;;;7.83;100.00
12536;BME280;6334;48.696;2.114;2022-11-24T06:28:11;99349.98;;;7.89;100.00
12536;BME280;6334;48.696;2.114;2022-11-24T06:30:42;99350.11;;;7.72;100.00
12536;BME280;6334;48.696;2.114;2022-11-24T06:33:12;99357.62;;;7.77;100.00
12536;BME280;6334;48.696;2.114;2022-11-24T06:35:44;99357.86;;;7.66;100.00
12536;BME280;6334;48.696;2.114;2022-11-24T06:38:14;99366.47;;;7.76;100.00
12536;BME280;6334;48.696;2.114;2022-11-24T06:40:45;99364.42;;;7.69;100.00
12536;BME280;6334;48.696;2.114;2022-11-24T06:43:15;99372.57;;;7.80;100.00
12536;BME280;6334;48.696;2.114;2022-11-24T06:45:50;99367.07;;;7.98;100.00
12536;BME280;6334;48.696;2.114;2022-11-24T06:48:18;99376.95;;;7.67;100.00
12536;BME280;6334;48.696;2.114;2022-11-24T06:50:48;99376.40;;;7.78;100.00
12536;BME280;6334;48.696;2.114;2022-11-24T06:53:18;99380.69;;;7.77;100.00
12536;BME280;6334;48.696;2.114;2022-11-24T06:55:47;99385.56;;;7.86;100.00
12536;BME280;6334;48.696;2.114;2022-11-24T06:58:17;99394.02;;;7.78;100.00
12536;BME280;6334;48.696;2.114;2022-11-24T07:00:47;99397.81;;;7.86;100.00
12536;BME280;6334;48.696;2.114;2022-11-24T07:03:16;99399.41;;;7.85;100.00
12536;BME280;6334;48.696;2.114;2022-11-24T07:05:52;99407.21;;;7.98;100.00
12536;BME280;6334;48.696;2.114;2022-11-24T07:08:18;99410.02;;;7.93;100.00
12536;BME280;6334;48.696;2.114;2022-11-24T07:10:48;99416.78;;;7.88;100.00
12536;BME280;6334;48.696;2.114;2022-11-24T07:13:18;99420.28;;;7.96;100.00
12536;BME280;6334;48.696;2.114;2022-11-24T07:15:49;99425.02;;;8.01;100.00
12536;BME280;6334;48.696;2.114;2022-11-24T07:18:20;99423.10;;;8.11;100.00
12536;BME280;6334;48.696;2.114;2022-11-24T07:20:50;99431.53;;;8.00;100.00
12536;BME280;6334;48.696;2.114;2022-11-24T07:23:23;99432.39;;;8.19;100.00
12536;BME280;6334;48.696;2.114;2022-11-24T07:25:54;99433.04;;;8.01;100.00
12536;BME280;6334;48.696;2.114;2022-11-24T07:28:25;99428.30;;;7.89;100.00
12536;BME280;6334;48.696;2.114;2022-11-24T07:30:55;99430.70;;;8.29;100.00
12536;BME280;6334;48.696;2.114;2022-11-24T07:33:25;99433.77;;;8.03;100.00
12536;BME280;6334;48.696;2.114;2022-11-24T07:35:58;99437.59;;;8.12;100.00
12536;BME280;6334;48.696;2.114;2022-11-24T07:38:28;99432.27;;;8.56;100.00
12536;BME280;6334;48.696;2.114;2022-11-24T07:41:06;99441.89;;;7.99;100.00
12536;BME280;6334;48.696;2.114;2022-11-24T07:43:36;99457.59;;;8.15;100.00
12536;BME280;6334;48.696;2.114;2022-11-24T07:46:07;99468.59;;;8.11;100.00
12536;BME280;6334;48.696;2.114;2022-11-24T07:48:37;99468.45;;;8.03;100.00
12536;BME280;6334;48.696;2.114;2022-11-24T07:51:08;99470.11;;;8.47;100.00
12536;BME280;6334;48.696;2.114;2022-11-24T07:53:39;99473.64;;;8.38;100.00
12536;BME280;6334;48.696;2.114;2022-11-24T07:56:09;99474.75;;;8.09;100.00
12536;BME280;6334;48.696;2.114;2022-11-24T07:58:39;99471.91;;;8.26;100.00
12536;BME280;6334;48.696;2.114;2022-11-24T08:01:17;99470.10;;;8.41;100.00
12536;BME280;6334;48.696;2.114;2022-11-24T08:03:40;99480.80;;;8.25;100.00
12536;BME280;6334;48.696;2.114;2022-11-24T08:06:12;99481.80;;;8.18;100.00
12536;BME280;6334;48.696;2.114;2022-11-24T08:08:42;99487.48;;;8.15;100.00
12536;BME280;6334;48.696;2.114;2022-11-24T08:11:14;99493.83;;;8.21;100.00
12536;BME280;6334;48.696;2.114;2022-11-24T08:13:43;99495.02;;;8.58;100.00
12536;BME280;6334;48.696;2.114;2022-11-24T08:16:15;99498.42;;;8.36;100.00
12536;BME280;6334;48.696;2.114;2022-11-24T08:18:52;99498.59;;;8.21;100.00
12536;BME280;6334;48.696;2.114;2022-11-24T08:21:22;99506.37;;;8.42;100.00
12536;BME280;6334;48.696;2.114;2022-11-24T08:23:54;99509.21;;;8.23;100.00
12536;BME280;6334;48.696;2.114;2022-11-24T08:26:27;99513.19;;;8.16;100.00
12536;BME280;6334;48.696;2.114;2022-11-24T08:28:58;99517.65;;;8.16;100.00
12536;BME280;6334;48.696;2.114;2022-11-24T08:31:27;99527.50;;;8.20;100.00
12536;BME280;6334;48.696;2.114;2022-11-24T08:34:06;99534.33;;;8.34;100.00
12536;BME280;6334;48.696;2.114;2022-11-24T08:36:38;99537.81;;;8.26;100.00
12536;BME280;6334;48.696;2.114;2022-11-24T08:39:08;99537.79;;;8.30;100.00
12536;BME280;6334;48.696;2.114;2022-11-24T08:41:56;99535.08;;;8.32;100.00
12536;BME280;6334;48.696;2.114;2022-11-24T08:44:30;99545.22;;;8.51;100.00
12536;BME280;6334;48.696;2.114;2022-11-24T08:47:01;99540.44;;;8.54;100.00
12536;BME280;6334;48.696;2.114;2022-11-24T08:49:31;99538.69;;;8.60;100.00
12536;BME280;6334;48.696;2.114;2022-11-24T08:52:03;99536.84;;;8.55;100.00
12536;BME280;6334;48.696;2.114;2022-11-24T08:54:34;99531.49;;;8.83;100.00
12536;BME280;6334;48.696;2.114;2022-11-24T08:57:04;99534.32;;;8.60;100.00
12536;BME280;6334;48.696;2.114;2022-11-24T08:59:33;99533.56;;;8.60;100.00
12536;BME280;6334;48.696;2.114;2022-11-24T09:04:40;99531.14;;;8.61;100.00
12536;BME280;6334;48.696;2.114;2022-11-24T09:07:11;99536.23;;;8.63;100.00
12536;BME280;6334;48.696;2.114;2022-11-24T09:09:41;99536.87;;;8.58;100.00
12536;BME280;6334;48.696;2.114;2022-11-24T09:12:11;99534.83;;;8.51;100.00
12536;BME280;6334;48.696;2.114;2022-11-24T09:14:46;99543.33;;;8.55;100.00
12536;BME280;6334;48.696;2.114;2022-11-24T09:17:16;99541.72;;;8.67;100.00
12536;BME280;6334;48.696;2.114;2022-11-24T09:19:49;99542.69;;;8.90;100.00
12536;BME280;6334;48.696;2.114;2022-11-24T09:22:18;99543.77;;;8.85;100.00
12536;BME280;6334;48.696;2.114;2022-11-24T09:24:48;99534.52;;;8.94;100.00
12536;BME280;6334;48.696;2.114;2022-11-24T09:27:19;99529.70;;;9.05;100.00
12536;BME280;6334;48.696;2.114;2022-11-24T09:29:52;99530.13;;;9.11;100.00
12536;BME280;6334;48.696;2.114;2022-11-24T09:32:23;99532.19;;;9.24;100.00
12536;BME280;6334;48.696;2.114;2022-11-24T09:34:53;99538.11;;;9.37;100.00
12536;BME280;6334;48.696;2.114;2022-11-24T09:37:23;99536.11;;;9.54;100.00
12536;BME280;6334;48.696;2.114;2022-11-24T09:39:53;99529.65;;;9.31;100.00
12536;BME280;6334;48.696;2.114;2022-11-24T09:42:29;99543.21;;;9.53;100.00
12536;BME280;6334;48.696;2.114;2022-11-24T09:47:50;99551.52;;;9.28;100.00
12536;BME280;6334;48.696;2.114;2022-11-24T09:50:29;99554.08;;;9.35;100.00
12536;BME280;6334;48.696;2.114;2022-11-24T09:53:14;99550.08;;;9.28;100.00
12536;BME280;6334;48.696;2.114;2022-11-24T09:55:51;99552.14;;;9.54;100.00
12536;BME280;6334;48.696;2.114;2022-11-24T09:58:42;99549.28;;;9.31;100.00
12536;BME280;6334;48.696;2.114;2022-11-24T10:01:20;99560.44;;;9.48;100.00
12536;BME280;6334;48.696;2.114;2022-11-24T10:03:51;99567.33;;;9.48;100.00
12536;BME280;6334;48.696;2.114;2022-11-24T10:06:29;99563.73;;;9.63;100.00
12536;BME280;6334;48.696;2.114;2022-11-24T10:21:09;99562.62;;;9.56;100.00
12536;BME280;6334;48.696;2.114;2022-11-24T10:23:53;99551.13;;;9.55;100.00
12536;BME280;6334;48.696;2.114;2022-11-24T10:26:37;99538.17;;;9.71;100.00
12536;BME280;6334;48.696;2.114;2022-11-24T10:29:19;99535.34;;;9.85;100.00
12536;BME280;6334;48.696;2.114;2022-11-24T10:31:47;99525.75;;;9.93;100.00
12536;BME280;6334;48.696;2.114;2022-11-24T10:34:18;99519.58;;;9.82;100.00
12536;BME280;6334;48.696;2.114;2022-11-24T10:42:34;99527.16;;;9.86;100.00
12536;BME280;6334;48.696;2.114;2022-11-24T10:45:10;99517.30;;;10.00;100.00
12536;BME280;6334;48.696;2.114;2022-11-24T10:47:39;99513.13;;;9.72;100.00
12536;BME280;6334;48.696;2.114;2022-11-24T10:50:32;99508.44;;;9.81;100.00
12536;BME280;6334;48.696;2.114;2022-11-24T10:53:21;99516.50;;;9.88;100.00
12536;BME280;6334;48.696;2.114;2022-11-24T10:58:37;99506.48;;;9.75;100.00
12536;BME280;6334;48.696;2.114;2022-11-24T11:03:51;99504.77;;;9.94;100.00
12536;BME280;6334;48.696;2.114;2022-11-24T11:06:27;99503.70;;;9.91;100.00
12536;BME280;6334;48.696;2.114;2022-11-24T11:11:43;99498.22;;;10.12;100.00
12536;BME280;6334;48.696;2.114;2022-11-24T11:14:34;99492.72;;;10.12;100.00
12536;BME280;6334;48.696;2.114;2022-11-24T11:16:44;99487.83;;;10.11;100.00
12536;BME280;6334;48.696;2.114;2022-11-24T11:19:35;99486.55;;;10.29;100.00
12536;BME280;6334;48.696;2.114;2022-11-24T11:22:17;99487.23;;;10.11;100.00
12536;BME280;6334;48.696;2.114;2022-11-24T11:24:35;99475.58;;;10.26;100.00
12536;BME280;6334;48.696;2.114;2022-11-24T11:27:27;99476.20;;;10.38;100.00
12536;BME280;6334;48.696;2.114;2022-11-24T11:29:37;99479.95;;;10.32;100.00
12536;BME280;6334;48.696;2.114;2022-11-24T11:32:22;99476.92;;;10.38;100.00
12536;BME280;6334;48.696;2.114;2022-11-24T11:34:49;99477.05;;;10.57;100.00
12536;BME280;6334;48.696;2.114;2022-11-24T11:37:18;99472.67;;;10.57;100.00
12536;BME280;6334;48.696;2.114;2022-11-24T11:39:54;99469.83;;;10.40;100.00
12536;BME280;6334;48.696;2.114;2022-11-24T11:45:11;99467.33;;;10.55;100.00
12536;BME280;6334;48.696;2.114;2022-11-24T11:56:36;99469.41;;;10.34;100.00
12536;BME280;6334;48.696;2.114;2022-11-24T12:04:57;99455.68;;;10.36;100.00
12536;BME280;6334;48.696;2.114;2022-11-24T12:07:43;99446.80;;;10.55;100.00
12536;BME280;6334;48.696;2.114;2022-11-24T12:15:48;99428.64;;;10.41;100.00
12536;BME280;6334;48.696;2.114;2022-11-24T12:23:47;99428.34;;;10.71;100.00
12536;BME280;6334;48.696;2.114;2022-11-24T12:29:41;99423.80;;;10.86;100.00
12536;BME280;6334;48.696;2.114;2022-11-24T12:43:31;99407.09;;;10.94;100.00
12536;BME280;6334;48.696;2.114;2022-11-24T12:46:25;99400.48;;;10.93;100.00
12536;BME280;6334;48.696;2.114;2022-11-24T12:51:45;99390.30;;;11.37;100.00
12536;BME280;6334;48.696;2.114;2022-11-24T12:54:20;99392.38;;;11.20;100.00
12536;BME280;6334;48.696;2.114;2022-11-24T12:57:12;99393.81;;;11.23;100.00
12536;BME280;6334;48.696;2.114;2022-11-24T12:59:51;99388.75;;;11.04;100.00
12536;BME280;6334;48.696;2.114;2022-11-24T13:02:26;99378.95;;;11.15;100.00
12536;BME280;6334;48.696;2.114;2022-11-24T13:05:04;99381.76;;;10.96;100.00
12536;BME280;6334;48.696;2.114;2022-11-24T13:10:25;99383.22;;;10.74;100.00
12536;BME280;6334;48.696;2.114;2022-11-24T13:13:11;99372.67;;;10.95;100.00
12536;BME280;6334;48.696;2.114;2022-11-24T13:18:45;99379.05;;;10.99;100.00
12536;BME280;6334;48.696;2.114;2022-11-24T13:29:49;99379.99;;;11.01;100.00
12536;BME280;6334;48.696;2.114;2022-11-24T13:35:13;99371.02;;;10.73;100.00
12536;BME280;6334;48.696;2.114;2022-11-24T13:37:48;99374.48;;;10.82;100.00
12536;BME280;6334;48.696;2.114;2022-11-24T13:53:30;99378.63;;;11.08;100.00
12536;BME280;6334;48.696;2.114;2022-11-24T13:56:34;99374.27;;;11.00;100.00
12536;BME280;6334;48.696;2.114;2022-11-24T13:58:48;99380.42;;;11.06;100.00
12536;BME280;6334;48.696;2.114;2022-11-24T14:01:24;99381.34;;;10.88;100.00
12536;BME280;6334;48.696;2.114;2022-11-24T14:04:04;99384.19;;;11.03;100.00
12536;BME280;6334;48.696;2.114;2022-11-24T14:06:36;99380.73;;;11.02;100.00
12536;BME280;6334;48.696;2.114;2022-11-24T14:09:18;99375.95;;;10.93;100.00
12536;BME280;6334;48.696;2.114;2022-11-24T14:11:40;99372.12;;;11.03;100.00
12536;BME280;6334;48.696;2.114;2022-11-24T14:14:19;99368.68;;;11.09;100.00
12536;BME280;6334;48.696;2.114;2022-11-24T14:19:48;99364.63;;;11.14;100.00
12536;BME280;6334;48.696;2.114;2022-11-24T14:22:40;99355.96;;;11.20;100.00
12536;BME280;6334;48.696;2.114;2022-11-24T14:25:27;99350.14;;;11.17;100.00
12536;BME280;6334;48.696;2.114;2022-11-24T14:27:54;99342.38;;;11.19;100.00
12536;BME280;6334;48.696;2.114;2022-11-24T14:30:26;99330.36;;;11.29;100.00
12536;BME280;6334;48.696;2.114;2022-11-24T14:35:33;99330.45;;;11.20;100.00
12536;BME280;6334;48.696;2.114;2022-11-24T14:38:04;99331.55;;;11.23;100.00
12536;BME280;6334;48.696;2.114;2022-11-24T14:43:20;99331.06;;;11.18;100.00
12536;BME280;6334;48.696;2.114;2022-11-24T14:45:53;99337.58;;;11.15;100.00
12536;BME280;6334;48.696;2.114;2022-11-24T14:48:49;99253.63;;;10.75;100.00
12536;BME280;6334;48.696;2.114;2022-11-24T14:51:34;99331.92;;;11.17;100.00
12536;BME280;6334;48.696;2.114;2022-11-24T14:54:06;99334.33;;;11.23;100.00
12536;BME280;6334;48.696;2.114;2022-11-24T14:56:35;99329.59;;;11.20;100.00
12536;BME280;6334;48.696;2.114;2022-11-24T14:59:26;99323.72;;;11.12;100.00
12536;BME280;6334;48.696;2.114;2022-11-24T15:01:35;99329.53;;;11.24;100.00
12536;BME280;6334;48.696;2.114;2022-11-24T15:04:20;99328.23;;;11.14;100.00
12536;BME280;6334;48.696;2.114;2022-11-24T15:09:58;99321.86;;;11.24;100.00
12536;BME280;6334;48.696;2.114;2022-11-24T15:12:38;99326.87;;;11.27;100.00
12536;BME280;6334;48.696;2.114;2022-11-24T15:17:46;99327.22;;;11.38;100.00
12536;BME280;6334;48.696;2.114;2022-11-24T15:25:44;99323.73;;;11.22;100.00
12536;BME280;6334;48.696;2.114;2022-11-24T15:28:16;99324.47;;;11.23;100.00
12536;BME280;6334;48.696;2.114;2022-11-24T15:30:50;99320.52;;;11.13;100.00
12536;BME280;6334;48.696;2.114;2022-11-24T15:33:21;99318.13;;;11.17;100.00
12536;BME280;6334;48.696;2.114;2022-11-24T15:35:54;99318.38;;;11.19;100.00
12536;BME280;6334;48.696;2.114;2022-11-24T15:38:26;99314.99;;;11.25;100.00
12536;BME280;6334;48.696;2.114;2022-11-24T15:40:59;99306.56;;;11.30;100.00
12536;BME280;6334;48.696;2.114;2022-11-24T15:43:37;99299.30;;;11.29;100.00